sensor_id;sensor_type;location;lat;lon;timestamp;P1;durP1;ratioP1;P2;durP2;ratioP2
58071;SDS011;60383;46.626;18.866;2023-07-13T00:02:07;2.95;;;2.08;;
58071;SDS011;60383;46.626;18.866;2023-07-13T00:04:33;4.85;;;1.90;;
58071;SDS011;60383;46.626;18.866;2023-07-13T00:06:59;5.75;;;2.28;;
58071;SDS011;60383;46.626;18.866;2023-07-13T00:09:24;5.53;;;2.03;;
58071;SDS011;60383;46.626;18.866;2023-07-13T00:11:51;3.47;;;2.20;;
58071;SDS011;60383;46.626;18.866;2023-07-13T00:14:18;5.65;;;2.28;;
58071;SDS011;60383;46.626;18.866;2023-07-13T00:16:43;3.78;;;1.90;;
58071;SDS011;60383;46.626;18.866;2023-07-13T00:19:10;4.47;;;2.03;;
58071;SDS011;60383;46.626;18.866;2023-07-13T00:21:37;3.13;;;2.00;;
58071;SDS011;60383;46.626;18.866;2023-07-13T00:24:04;5.18;;;1.95;;
58071;SDS011;60383;46.626;18.866;2023-07-13T00:26:30;2.63;;;1.90;;
58071;SDS011;60383;46.626;18.866;2023-07-13T00:28:57;3.63;;;2.20;;
58071;SDS011;60383;46.626;18.866;2023-07-13T00:31:24;3.38;;;2.00;;
58071;SDS011;60383;46.626;18.866;2023-07-13T00:33:49;3.53;;;1.75;;
58071;SDS011;60383;46.626;18.866;2023-07-13T00:36:15;4.45;;;1.90;;
58071;SDS011;60383;46.626;18.866;2023-07-13T00:38:40;4.30;;;2.05;;
58071;SDS011;60383;46.626;18.866;2023-07-13T00:41:06;5.68;;;2.97;;
58071;SDS011;60383;46.626;18.866;2023-07-13T00:43:32;3.92;;;2.05;;
58071;SDS011;60383;46.626;18.866;2023-07-13T00:48:38;4.95;;;1.70;;
58071;SDS011;60383;46.626;18.866;2023-07-13T00:51:05;5.75;;;2.67;;
58071;SDS011;60383;46.626;18.866;2023-07-13T00:53:30;6.45;;;2.20;;
58071;SDS011;60383;46.626;18.866;2023-07-13T00:55:59;6.30;;;2.20;;
58071;SDS011;60383;46.626;18.866;2023-07-13T00:58:25;5.15;;;2.63;;
58071;SDS011;60383;46.626;18.866;2023-07-13T01:00:52;4.93;;;2.40;;
58071;SDS011;60383;46.626;18.866;2023-07-13T01:03:18;3.90;;;2.10;;
58071;SDS011;60383;46.626;18.866;2023-07-13T01:05:44;4.50;;;2.25;;
58071;SDS011;60383;46.626;18.866;2023-07-13T01:08:13;4.30;;;2.13;;
58071;SDS011;60383;46.626;18.866;2023-07-13T01:10:39;4.22;;;2.17;;
58071;SDS011;60383;46.626;18.866;2023-07-13T01:13:08;4.57;;;2.60;;
58071;SDS011;60383;46.626;18.866;2023-07-13T01:15:39;2.63;;;2.30;;
58071;SDS011;60383;46.626;18.866;2023-07-13T01:18:16;4.10;;;2.67;;
58071;SDS011;60383;46.626;18.866;2023-07-13T01:23:26;2.63;;;2.20;;
58071;SDS011;60383;46.626;18.866;2023-07-13T01:25:52;3.65;;;2.42;;
58071;SDS011;60383;46.626;18.866;2023-07-13T01:28:20;3.97;;;2.53;;
58071;SDS011;60383;46.626;18.866;2023-07-13T01:30:47;3.22;;;2.20;;
58071;SDS011;60383;46.626;18.866;2023-07-13T01:33:13;5.15;;;2.67;;
58071;SDS011;60383;46.626;18.866;2023-07-13T01:35:41;6.75;;;2.90;;
58071;SDS011;60383;46.626;18.866;2023-07-13T01:38:08;3.00;;;2.38;;
58071;SDS011;60383;46.626;18.866;2023-07-13T01:40:35;6.35;;;2.90;;
58071;SDS011;60383;46.626;18.866;2023-07-13T01:43:01;3.45;;;3.13;;
58071;SDS011;60383;46.626;18.866;2023-07-13T01:45:26;4.38;;;3.17;;
58071;SDS011;60383;46.626;18.866;2023-07-13T01:47:52;4.25;;;2.72;;
58071;SDS011;60383;46.626;18.866;2023-07-13T01:50:17;5.63;;;2.88;;
58071;SDS011;60383;46.626;18.866;2023-07-13T01:52:43;3.97;;;2.65;;
58071;SDS011;60383;46.626;18.866;2023-07-13T01:55:08;5.10;;;3.08;;
58071;SDS011;60383;46.626;18.866;2023-07-13T01:57:34;6.15;;;3.28;;
58071;SDS011;60383;46.626;18.866;2023-07-13T02:00:02;4.72;;;2.72;;
58071;SDS011;60383;46.626;18.866;2023-07-13T02:04:55;3.78;;;3.08;;
58071;SDS011;60383;46.626;18.866;2023-07-13T02:07:21;3.88;;;2.67;;
58071;SDS011;60383;46.626;18.866;2023-07-13T02:09:46;6.50;;;3.20;;
58071;SDS011;60383;46.626;18.866;2023-07-13T02:12:12;4.32;;;2.88;;
58071;SDS011;60383;46.626;18.866;2023-07-13T02:14:37;5.43;;;3.33;;
58071;SDS011;60383;46.626;18.866;2023-07-13T02:17:03;5.95;;;3.10;;
58071;SDS011;60383;46.626;18.866;2023-07-13T02:19:29;5.20;;;2.90;;
58071;SDS011;60383;46.626;18.866;2023-07-13T02:21:55;4.25;;;3.35;;
58071;SDS011;60383;46.626;18.866;2023-07-13T02:24:20;5.75;;;3.03;;
58071;SDS011;60383;46.626;18.866;2023-07-13T02:26:46;4.50;;;3.13;;
58071;SDS011;60383;46.626;18.866;2023-07-13T02:29:12;4.55;;;3.30;;
58071;SDS011;60383;46.626;18.866;2023-07-13T02:31:38;6.72;;;3.45;;
58071;SDS011;60383;46.626;18.866;2023-07-13T02:34:03;5.15;;;3.10;;
58071;SDS011;60383;46.626;18.866;2023-07-13T02:36:29;5.00;;;3.33;;
58071;SDS011;60383;46.626;18.866;2023-07-13T02:38:55;3.88;;;3.03;;
58071;SDS011;60383;46.626;18.866;2023-07-13T02:41:21;5.30;;;3.13;;
58071;SDS011;60383;46.626;18.866;2023-07-13T02:43:48;4.38;;;3.00;;
58071;SDS011;60383;46.626;18.866;2023-07-13T02:46:14;7.65;;;3.63;;
58071;SDS011;60383;46.626;18.866;2023-07-13T02:48:39;5.32;;;3.30;;
58071;SDS011;60383;46.626;18.866;2023-07-13T02:51:05;5.43;;;3.30;;
58071;SDS011;60383;46.626;18.866;2023-07-13T02:53:32;4.47;;;2.83;;
58071;SDS011;60383;46.626;18.866;2023-07-13T02:55:58;4.18;;;2.83;;
58071;SDS011;60383;46.626;18.866;2023-07-13T02:58:24;5.32;;;3.50;;
58071;SDS011;60383;46.626;18.866;2023-07-13T03:00:51;3.88;;;2.95;;
58071;SDS011;60383;46.626;18.866;2023-07-13T03:03:16;3.90;;;2.90;;
58071;SDS011;60383;46.626;18.866;2023-07-13T03:05:43;4.40;;;2.95;;
58071;SDS011;60383;46.626;18.866;2023-07-13T03:08:10;3.47;;;2.90;;
58071;SDS011;60383;46.626;18.866;2023-07-13T03:10:36;5.07;;;3.17;;
58071;SDS011;60383;46.626;18.866;2023-07-13T03:13:02;7.40;;;3.00;;
58071;SDS011;60383;46.626;18.866;2023-07-13T03:15:27;4.00;;;2.80;;
58071;SDS011;60383;46.626;18.866;2023-07-13T03:17:53;4.80;;;3.17;;
58071;SDS011;60383;46.626;18.866;2023-07-13T03:20:19;4.38;;;2.85;;
58071;SDS011;60383;46.626;18.866;2023-07-13T03:22:44;4.40;;;3.00;;
58071;SDS011;60383;46.626;18.866;2023-07-13T03:25:10;5.22;;;2.85;;
58071;SDS011;60383;46.626;18.866;2023-07-13T03:27:36;5.15;;;3.10;;
58071;SDS011;60383;46.626;18.866;2023-07-13T03:30:02;4.05;;;2.63;;
58071;SDS011;60383;46.626;18.866;2023-07-13T03:32:28;3.35;;;2.78;;
58071;SDS011;60383;46.626;18.866;2023-07-13T03:34:54;4.18;;;2.85;;
58071;SDS011;60383;46.626;18.866;2023-07-13T03:37:21;3.83;;;3.05;;
58071;SDS011;60383;46.626;18.866;2023-07-13T03:39:46;3.35;;;2.90;;
58071;SDS011;60383;46.626;18.866;2023-07-13T03:42:12;3.85;;;2.80;;
58071;SDS011;60383;46.626;18.866;2023-07-13T03:44:39;4.00;;;2.85;;
58071;SDS011;60383;46.626;18.866;2023-07-13T03:47:05;5.55;;;3.50;;
58071;SDS011;60383;46.626;18.866;2023-07-13T03:49:31;6.10;;;3.20;;
58071;SDS011;60383;46.626;18.866;2023-07-13T03:51:57;5.75;;;2.67;;
58071;SDS011;60383;46.626;18.866;2023-07-13T03:54:22;8.35;;;3.33;;
58071;SDS011;60383;46.626;18.866;2023-07-13T03:56:48;4.82;;;2.92;;
58071;SDS011;60383;46.626;18.866;2023-07-13T03:59:13;4.50;;;2.90;;
58071;SDS011;60383;46.626;18.866;2023-07-13T04:01:39;4.18;;;3.53;;
58071;SDS011;60383;46.626;18.866;2023-07-13T04:04:04;4.68;;;3.50;;
58071;SDS011;60383;46.626;18.866;2023-07-13T04:06:30;4.60;;;3.42;;
58071;SDS011;60383;46.626;18.866;2023-07-13T04:08:57;6.55;;;3.40;;
58071;SDS011;60383;46.626;18.866;2023-07-13T04:11:25;5.85;;;3.13;;
58071;SDS011;60383;46.626;18.866;2023-07-13T04:13:51;4.53;;;3.03;;
58071;SDS011;60383;46.626;18.866;2023-07-13T04:16:17;5.07;;;3.30;;
58071;SDS011;60383;46.626;18.866;2023-07-13T04:18:44;4.85;;;3.35;;
58071;SDS011;60383;46.626;18.866;2023-07-13T04:21:10;3.55;;;2.83;;
58071;SDS011;60383;46.626;18.866;2023-07-13T04:23:36;3.35;;;2.70;;
58071;SDS011;60383;46.626;18.866;2023-07-13T04:26:02;8.45;;;2.92;;
58071;SDS011;60383;46.626;18.866;2023-07-13T04:28:28;7.10;;;2.20;;
58071;SDS011;60383;46.626;18.866;2023-07-13T04:37:17;3.13;;;1.60;;
58071;SDS011;60383;46.626;18.866;2023-07-13T04:39:42;1.50;;;1.30;;
58071;SDS011;60383;46.626;18.866;2023-07-13T04:42:07;2.25;;;1.38;;
58071;SDS011;60383;46.626;18.866;2023-07-13T04:44:33;2.55;;;0.82;;
58071;SDS011;60383;46.626;18.866;2023-07-13T04:46:58;1.05;;;0.77;;
58071;SDS011;60383;46.626;18.866;2023-07-13T04:49:24;1.05;;;0.55;;
58071;SDS011;60383;46.626;18.866;2023-07-13T04:51:50;2.47;;;0.70;;
58071;SDS011;60383;46.626;18.866;2023-07-13T04:54:15;2.17;;;0.80;;
58071;SDS011;60383;46.626;18.866;2023-07-13T04:56:41;1.80;;;1.15;;
58071;SDS011;60383;46.626;18.866;2023-07-13T04:59:06;1.33;;;0.90;;
58071;SDS011;60383;46.626;18.866;2023-07-13T05:01:32;2.05;;;1.00;;
58071;SDS011;60383;46.626;18.866;2023-07-13T05:03:57;3.45;;;0.93;;
58071;SDS011;60383;46.626;18.866;2023-07-13T05:06:24;1.00;;;0.75;;
58071;SDS011;60383;46.626;18.866;2023-07-13T05:08:49;4.13;;;0.90;;
58071;SDS011;60383;46.626;18.866;2023-07-13T05:11:15;2.03;;;1.00;;
58071;SDS011;60383;46.626;18.866;2023-07-13T05:13:40;1.60;;;0.75;;
58071;SDS011;60383;46.626;18.866;2023-07-13T05:16:06;3.05;;;0.80;;
58071;SDS011;60383;46.626;18.866;2023-07-13T05:18:32;1.08;;;0.65;;
58071;SDS011;60383;46.626;18.866;2023-07-13T05:21:05;1.95;;;0.60;;
58071;SDS011;60383;46.626;18.866;2023-07-13T05:23:33;0.75;;;0.70;;
58071;SDS011;60383;46.626;18.866;2023-07-13T05:26:00;1.98;;;0.70;;
58071;SDS011;60383;46.626;18.866;2023-07-13T05:28:26;1.20;;;0.90;;
58071;SDS011;60383;46.626;18.866;2023-07-13T05:30:52;0.80;;;0.60;;
58071;SDS011;60383;46.626;18.866;2023-07-13T05:33:19;2.65;;;0.88;;
58071;SDS011;60383;46.626;18.866;2023-07-13T05:35:45;1.60;;;0.57;;
58071;SDS011;60383;46.626;18.866;2023-07-13T05:38:11;1.77;;;0.80;;
58071;SDS011;60383;46.626;18.866;2023-07-13T05:40:37;1.67;;;1.52;;
58071;SDS011;60383;46.626;18.866;2023-07-13T05:43:02;1.70;;;0.77;;
58071;SDS011;60383;46.626;18.866;2023-07-13T05:45:28;1.95;;;0.60;;
58071;SDS011;60383;46.626;18.866;2023-07-13T05:47:54;1.10;;;0.73;;
58071;SDS011;60383;46.626;18.866;2023-07-13T05:50:20;0.52;;;0.52;;
58071;SDS011;60383;46.626;18.866;2023-07-13T05:52:46;2.65;;;0.82;;
58071;SDS011;60383;46.626;18.866;2023-07-13T05:55:12;2.67;;;0.77;;
58071;SDS011;60383;46.626;18.866;2023-07-13T05:57:38;1.23;;;0.60;;
58071;SDS011;60383;46.626;18.866;2023-07-13T06:00:03;1.63;;;0.80;;
58071;SDS011;60383;46.626;18.866;2023-07-13T06:02:29;3.72;;;0.93;;
58071;SDS011;60383;46.626;18.866;2023-07-13T06:04:55;0.98;;;0.60;;
58071;SDS011;60383;46.626;18.866;2023-07-13T06:07:20;0.75;;;0.50;;
58071;SDS011;60383;46.626;18.866;2023-07-13T06:09:46;2.05;;;0.70;;
58071;SDS011;60383;46.626;18.866;2023-07-13T06:12:11;0.85;;;0.52;;
58071;SDS011;60383;46.626;18.866;2023-07-13T06:14:37;1.98;;;0.63;;
58071;SDS011;60383;46.626;18.866;2023-07-13T06:17:02;0.73;;;0.63;;
58071;SDS011;60383;46.626;18.866;2023-07-13T06:19:28;0.77;;;0.77;;
58071;SDS011;60383;46.626;18.866;2023-07-13T06:21:54;1.10;;;0.70;;
58071;SDS011;60383;46.626;18.866;2023-07-13T06:24:19;1.08;;;0.80;;
58071;SDS011;60383;46.626;18.866;2023-07-13T06:26:45;1.30;;;0.50;;
58071;SDS011;60383;46.626;18.866;2023-07-13T06:29:10;1.13;;;0.70;;
58071;SDS011;60383;46.626;18.866;2023-07-13T06:31:36;1.60;;;0.90;;
58071;SDS011;60383;46.626;18.866;2023-07-13T06:34:01;1.15;;;0.70;;
58071;SDS011;60383;46.626;18.866;2023-07-13T06:36:27;0.80;;;0.80;;
58071;SDS011;60383;46.626;18.866;2023-07-13T06:38:53;1.10;;;0.98;;
58071;SDS011;60383;46.626;18.866;2023-07-13T06:41:18;1.15;;;0.70;;
58071;SDS011;60383;46.626;18.866;2023-07-13T06:43:44;0.73;;;0.65;;
58071;SDS011;60383;46.626;18.866;2023-07-13T06:46:09;1.05;;;0.95;;
58071;SDS011;60383;46.626;18.866;2023-07-13T06:48:35;1.70;;;0.90;;
58071;SDS011;60383;46.626;18.866;2023-07-13T06:51:01;1.90;;;0.80;;
58071;SDS011;60383;46.626;18.866;2023-07-13T06:53:27;0.70;;;0.70;;
58071;SDS011;60383;46.626;18.866;2023-07-13T06:55:52;0.73;;;0.40;;
58071;SDS011;60383;46.626;18.866;2023-07-13T06:58:18;1.45;;;0.70;;
58071;SDS011;60383;46.626;18.866;2023-07-13T07:00:44;1.58;;;0.82;;
58071;SDS011;60383;46.626;18.866;2023-07-13T07:03:10;2.72;;;1.65;;
58071;SDS011;60383;46.626;18.866;2023-07-13T07:05:36;1.00;;;0.70;;
58071;SDS011;60383;46.626;18.866;2023-07-13T07:08:01;0.98;;;0.77;;
58071;SDS011;60383;46.626;18.866;2023-07-13T07:10:29;1.58;;;0.88;;
58071;SDS011;60383;46.626;18.866;2023-07-13T07:12:56;2.53;;;0.80;;
58071;SDS011;60383;46.626;18.866;2023-07-13T07:15:21;0.98;;;0.82;;
58071;SDS011;60383;46.626;18.866;2023-07-13T07:17:47;1.13;;;0.85;;
58071;SDS011;60383;46.626;18.866;2023-07-13T07:20:13;1.13;;;0.80;;
58071;SDS011;60383;46.626;18.866;2023-07-13T07:22:38;1.83;;;0.90;;
58071;SDS011;60383;46.626;18.866;2023-07-13T07:25:04;2.40;;;0.80;;
58071;SDS011;60383;46.626;18.866;2023-07-13T07:27:30;0.95;;;0.90;;
58071;SDS011;60383;46.626;18.866;2023-07-13T07:29:55;1.83;;;0.90;;
58071;SDS011;60383;46.626;18.866;2023-07-13T07:32:22;1.27;;;1.00;;
58071;SDS011;60383;46.626;18.866;2023-07-13T07:34:48;1.08;;;0.73;;
58071;SDS011;60383;46.626;18.866;2023-07-13T07:37:13;1.27;;;1.00;;
58071;SDS011;60383;46.626;18.866;2023-07-13T07:39:39;0.98;;;0.80;;
58071;SDS011;60383;46.626;18.866;2023-07-13T07:42:05;1.20;;;0.93;;
58071;SDS011;60383;46.626;18.866;2023-07-13T07:44:31;1.27;;;0.75;;
58071;SDS011;60383;46.626;18.866;2023-07-13T07:46:58;1.55;;;0.95;;
58071;SDS011;60383;46.626;18.866;2023-07-13T07:49:23;2.22;;;0.85;;
58071;SDS011;60383;46.626;18.866;2023-07-13T07:51:49;1.20;;;1.08;;
58071;SDS011;60383;46.626;18.866;2023-07-13T07:54:15;2.45;;;1.10;;
58071;SDS011;60383;46.626;18.866;2023-07-13T07:56:41;1.00;;;0.90;;
58071;SDS011;60383;46.626;18.866;2023-07-13T07:59:07;2.08;;;0.98;;
58071;SDS011;60383;46.626;18.866;2023-07-13T08:01:33;2.00;;;0.90;;
58071;SDS011;60383;46.626;18.866;2023-07-13T08:03:58;1.77;;;0.90;;
58071;SDS011;60383;46.626;18.866;2023-07-13T08:06:23;1.05;;;0.95;;
58071;SDS011;60383;46.626;18.866;2023-07-13T08:08:49;1.80;;;1.00;;
58071;SDS011;60383;46.626;18.866;2023-07-13T08:11:15;1.42;;;1.20;;
58071;SDS011;60383;46.626;18.866;2023-07-13T08:13:40;1.92;;;1.00;;
58071;SDS011;60383;46.626;18.866;2023-07-13T08:16:06;1.10;;;0.85;;
58071;SDS011;60383;46.626;18.866;2023-07-13T08:18:32;1.00;;;0.90;;
58071;SDS011;60383;46.626;18.866;2023-07-13T08:20:57;1.10;;;1.00;;
58071;SDS011;60383;46.626;18.866;2023-07-13T08:23:24;1.88;;;1.15;;
58071;SDS011;60383;46.626;18.866;2023-07-13T08:25:50;1.35;;;1.17;;
58071;SDS011;60383;46.626;18.866;2023-07-13T08:28:19;1.08;;;1.00;;
58071;SDS011;60383;46.626;18.866;2023-07-13T08:30:48;2.35;;;1.27;;
58071;SDS011;60383;46.626;18.866;2023-07-13T08:33:18;1.88;;;1.15;;
58071;SDS011;60383;46.626;18.866;2023-07-13T08:35:48;1.90;;;1.77;;
58071;SDS011;60383;46.626;18.866;2023-07-13T08:38:14;1.35;;;1.20;;
58071;SDS011;60383;46.626;18.866;2023-07-13T08:40:41;1.60;;;1.13;;
58071;SDS011;60383;46.626;18.866;2023-07-13T08:43:15;2.08;;;1.20;;
58071;SDS011;60383;46.626;18.866;2023-07-13T08:45:44;1.30;;;1.20;;
58071;SDS011;60383;46.626;18.866;2023-07-13T08:48:23;1.80;;;1.30;;
58071;SDS011;60383;46.626;18.866;2023-07-13T08:53:23;1.38;;;1.27;;
58071;SDS011;60383;46.626;18.866;2023-07-13T08:55:59;1.52;;;1.10;;
58071;SDS011;60383;46.626;18.866;2023-07-13T08:58:25;1.55;;;1.13;;
58071;SDS011;60383;46.626;18.866;2023-07-13T09:01:09;1.27;;;1.10;;
58071;SDS011;60383;46.626;18.866;2023-07-13T09:11:56;1.83;;;1.15;;
58071;SDS011;60383;46.626;18.866;2023-07-13T09:14:47;2.05;;;1.35;;
58071;SDS011;60383;46.626;18.866;2023-07-13T09:17:20;2.40;;;1.05;;
58071;SDS011;60383;46.626;18.866;2023-07-13T09:20:33;1.60;;;1.30;;
58071;SDS011;60383;46.626;18.866;2023-07-13T09:22:51;1.48;;;1.20;;
58071;SDS011;60383;46.626;18.866;2023-07-13T09:33:50;1.60;;;1.45;;
58071;SDS011;60383;46.626;18.866;2023-07-13T09:36:26;1.70;;;1.27;;
58071;SDS011;60383;46.626;18.866;2023-07-13T09:41:39;1.58;;;1.48;;
58071;SDS011;60383;46.626;18.866;2023-07-13T09:44:16;1.40;;;1.00;;
58071;SDS011;60383;46.626;18.866;2023-07-13T09:46:44;2.17;;;1.40;;
58071;SDS011;60383;46.626;18.866;2023-07-13T09:49:12;1.67;;;1.20;;
58071;SDS011;60383;46.626;18.866;2023-07-13T09:51:40;1.38;;;1.27;;
58071;SDS011;60383;46.626;18.866;2023-07-13T09:54:17;1.23;;;1.13;;
58071;SDS011;60383;46.626;18.866;2023-07-13T09:56:43;1.20;;;1.10;;
58071;SDS011;60383;46.626;18.866;2023-07-13T09:59:19;1.70;;;1.23;;
58071;SDS011;60383;46.626;18.866;2023-07-13T10:01:46;1.65;;;1.38;;
58071;SDS011;60383;46.626;18.866;2023-07-13T10:04:13;2.10;;;1.40;;
58071;SDS011;60383;46.626;18.866;2023-07-13T10:06:43;2.05;;;1.25;;
58071;SDS011;60383;46.626;18.866;2023-07-13T10:09:10;1.55;;;1.23;;
58071;SDS011;60383;46.626;18.866;2023-07-13T10:11:40;1.45;;;1.10;;
58071;SDS011;60383;46.626;18.866;2023-07-13T10:14:14;1.23;;;1.13;;
58071;SDS011;60383;46.626;18.866;2023-07-13T10:16:43;1.55;;;1.27;;
58071;SDS011;60383;46.626;18.866;2023-07-13T10:19:21;1.92;;;1.00;;
58071;SDS011;60383;46.626;18.866;2023-07-13T10:21:55;1.15;;;1.02;;
58071;SDS011;60383;46.626;18.866;2023-07-13T10:24:28;1.15;;;1.05;;
58071;SDS011;60383;46.626;18.866;2023-07-13T10:27:05;1.10;;;1.00;;
58071;SDS011;60383;46.626;18.866;2023-07-13T10:29:35;1.10;;;1.00;;
58071;SDS011;60383;46.626;18.866;2023-07-13T10:32:09;1.30;;;1.20;;
58071;SDS011;60383;46.626;18.866;2023-07-13T10:34:37;1.45;;;1.20;;
58071;SDS011;60383;46.626;18.866;2023-07-13T10:37:04;1.25;;;1.00;;
58071;SDS011;60383;46.626;18.866;2023-07-13T10:39:33;1.95;;;1.17;;
58071;SDS011;60383;46.626;18.866;2023-07-13T10:42:01;1.83;;;1.10;;
58071;SDS011;60383;46.626;18.866;2023-07-13T10:44:30;3.05;;;1.02;;
58071;SDS011;60383;46.626;18.866;2023-07-13T10:47:01;1.15;;;0.98;;
58071;SDS011;60383;46.626;18.866;2023-07-13T10:49:31;1.05;;;0.90;;
58071;SDS011;60383;46.626;18.866;2023-07-13T10:52:00;0.98;;;0.98;;
58071;SDS011;60383;46.626;18.866;2023-07-13T10:54:27;1.90;;;1.00;;
58071;SDS011;60383;46.626;18.866;2023-07-13T11:02:28;1.27;;;1.15;;
58071;SDS011;60383;46.626;18.866;2023-07-13T11:04:54;1.20;;;1.00;;
58071;SDS011;60383;46.626;18.866;2023-07-13T11:09:56;1.20;;;1.10;;
58071;SDS011;60383;46.626;18.866;2023-07-13T11:22:51;1.70;;;1.00;;
58071;SDS011;60383;46.626;18.866;2023-07-13T11:25:32;0.95;;;0.88;;
58071;SDS011;60383;46.626;18.866;2023-07-13T11:30:40;0.90;;;0.85;;
58071;SDS011;60383;46.626;18.866;2023-07-13T11:33:15;1.30;;;1.20;;
58071;SDS011;60383;46.626;18.866;2023-07-13T11:35:45;1.70;;;0.90;;
58071;SDS011;60383;46.626;18.866;2023-07-13T11:38:17;0.75;;;0.75;;
58071;SDS011;60383;46.626;18.866;2023-07-13T11:40:46;1.73;;;1.10;;
58071;SDS011;60383;46.626;18.866;2023-07-13T11:43:13;1.10;;;1.00;;
58071;SDS011;60383;46.626;18.866;2023-07-13T11:45:40;1.45;;;1.00;;
58071;SDS011;60383;46.626;18.866;2023-07-13T11:48:20;1.08;;;1.00;;
58071;SDS011;60383;46.626;18.866;2023-07-13T11:50:51;1.00;;;0.90;;
58071;SDS011;60383;46.626;18.866;2023-07-13T11:53:19;1.10;;;1.00;;
58071;SDS011;60383;46.626;18.866;2023-07-13T11:55:45;1.05;;;0.95;;
58071;SDS011;60383;46.626;18.866;2023-07-13T11:58:19;1.73;;;1.02;;
58071;SDS011;60383;46.626;18.866;2023-07-13T12:00:49;1.20;;;1.00;;
58071;SDS011;60383;46.626;18.866;2023-07-13T12:03:18;1.20;;;0.93;;
58071;SDS011;60383;46.626;18.866;2023-07-13T12:06:05;1.10;;;1.00;;
58071;SDS011;60383;46.626;18.866;2023-07-13T12:08:43;1.35;;;1.00;;
58071;SDS011;60383;46.626;18.866;2023-07-13T12:11:15;0.65;;;0.65;;
58071;SDS011;60383;46.626;18.866;2023-07-13T12:13:43;2.03;;;1.20;;
58071;SDS011;60383;46.626;18.866;2023-07-13T12:16:16;1.30;;;1.20;;
58071;SDS011;60383;46.626;18.866;2023-07-13T12:18:50;0.77;;;0.73;;
58071;SDS011;60383;46.626;18.866;2023-07-13T12:21:18;1.42;;;1.08;;
58071;SDS011;60383;46.626;18.866;2023-07-13T12:23:47;1.08;;;0.80;;
58071;SDS011;60383;46.626;18.866;2023-07-13T12:26:15;0.75;;;0.70;;
58071;SDS011;60383;46.626;18.866;2023-07-13T12:28:49;1.15;;;0.75;;
58071;SDS011;60383;46.626;18.866;2023-07-13T12:34:14;1.77;;;1.00;;
58071;SDS011;60383;46.626;18.866;2023-07-13T12:36:41;0.95;;;0.85;;
58071;SDS011;60383;46.626;18.866;2023-07-13T12:39:22;1.13;;;0.80;;
58071;SDS011;60383;46.626;18.866;2023-07-13T12:41:51;1.63;;;1.00;;
58071;SDS011;60383;46.626;18.866;2023-07-13T12:44:18;0.90;;;0.80;;
58071;SDS011;60383;46.626;18.866;2023-07-13T12:46:57;0.90;;;0.80;;
58071;SDS011;60383;46.626;18.866;2023-07-13T12:49:40;0.95;;;0.80;;
58071;SDS011;60383;46.626;18.866;2023-07-13T12:52:14;0.80;;;0.80;;
58071;SDS011;60383;46.626;18.866;2023-07-13T12:54:42;0.57;;;0.57;;
58071;SDS011;60383;46.626;18.866;2023-07-13T12:57:18;2.38;;;0.80;;
58071;SDS011;60383;46.626;18.866;2023-07-13T12:59:43;1.15;;;0.80;;
58071;SDS011;60383;46.626;18.866;2023-07-13T13:02:17;1.17;;;0.88;;
58071;SDS011;60383;46.626;18.866;2023-07-13T13:04:51;1.02;;;0.98;;
58071;SDS011;60383;46.626;18.866;2023-07-13T13:07:17;1.17;;;0.98;;
58071;SDS011;60383;46.626;18.866;2023-07-13T13:09:45;1.13;;;0.90;;
58071;SDS011;60383;46.626;18.866;2023-07-13T13:12:12;1.35;;;0.82;;
58071;SDS011;60383;46.626;18.866;2023-07-13T13:14:37;1.17;;;1.08;;
58071;SDS011;60383;46.626;18.866;2023-07-13T13:17:04;0.98;;;0.90;;
58071;SDS011;60383;46.626;18.866;2023-07-13T13:19:50;1.45;;;0.80;;
58071;SDS011;60383;46.626;18.866;2023-07-13T13:22:18;1.05;;;0.95;;
58071;SDS011;60383;46.626;18.866;2023-07-13T13:24:43;0.77;;;0.77;;
58071;SDS011;60383;46.626;18.866;2023-07-13T13:27:13;1.15;;;1.05;;
58071;SDS011;60383;46.626;18.866;2023-07-13T13:29:44;1.13;;;1.02;;
58071;SDS011;60383;46.626;18.866;2023-07-13T13:32:11;0.68;;;0.68;;
58071;SDS011;60383;46.626;18.866;2023-07-13T13:34:38;0.82;;;0.75;;
58071;SDS011;60383;46.626;18.866;2023-07-13T13:37:04;1.10;;;0.90;;
58071;SDS011;60383;46.626;18.866;2023-07-13T13:39:55;1.00;;;0.70;;
58071;SDS011;60383;46.626;18.866;2023-07-13T13:42:20;1.33;;;1.00;;
58071;SDS011;60383;46.626;18.866;2023-07-13T13:44:49;0.82;;;0.82;;
58071;SDS011;60383;46.626;18.866;2023-07-13T13:47:25;0.80;;;0.80;;
58071;SDS011;60383;46.626;18.866;2023-07-13T13:49:56;0.90;;;0.82;;
58071;SDS011;60383;46.626;18.866;2023-07-13T13:52:22;1.10;;;1.00;;
58071;SDS011;60383;46.626;18.866;2023-07-13T13:54:48;0.68;;;0.60;;
58071;SDS011;60383;46.626;18.866;2023-07-13T13:57:13;1.17;;;0.80;;
58071;SDS011;60383;46.626;18.866;2023-07-13T13:59:39;0.90;;;0.80;;
58071;SDS011;60383;46.626;18.866;2023-07-13T14:02:15;1.15;;;0.90;;
58071;SDS011;60383;46.626;18.866;2023-07-13T14:04:50;1.05;;;0.85;;
58071;SDS011;60383;46.626;18.866;2023-07-13T14:07:19;1.35;;;0.90;;
58071;SDS011;60383;46.626;18.866;2023-07-13T14:09:45;2.55;;;0.93;;
58071;SDS011;60383;46.626;18.866;2023-07-13T14:12:10;1.38;;;0.80;;
58071;SDS011;60383;46.626;18.866;2023-07-13T14:14:37;0.90;;;0.90;;
58071;SDS011;60383;46.626;18.866;2023-07-13T14:17:03;1.30;;;0.90;;
58071;SDS011;60383;46.626;18.866;2023-07-13T14:19:29;1.55;;;0.82;;
58071;SDS011;60383;46.626;18.866;2023-07-13T14:21:55;1.40;;;0.85;;
58071;SDS011;60383;46.626;18.866;2023-07-13T14:24:20;1.13;;;0.90;;
58071;SDS011;60383;46.626;18.866;2023-07-13T14:26:46;0.90;;;0.80;;
58071;SDS011;60383;46.626;18.866;2023-07-13T14:29:16;0.85;;;0.85;;
58071;SDS011;60383;46.626;18.866;2023-07-13T14:31:44;1.05;;;0.90;;
58071;SDS011;60383;46.626;18.866;2023-07-13T14:34:10;1.33;;;0.80;;
58071;SDS011;60383;46.626;18.866;2023-07-13T14:36:38;0.80;;;0.80;;
58071;SDS011;60383;46.626;18.866;2023-07-13T14:39:14;0.90;;;0.75;;
58071;SDS011;60383;46.626;18.866;2023-07-13T14:41:41;1.25;;;0.90;;
58071;SDS011;60383;46.626;18.866;2023-07-13T14:44:14;1.38;;;0.80;;
58071;SDS011;60383;46.626;18.866;2023-07-13T14:46:41;1.80;;;0.90;;
58071;SDS011;60383;46.626;18.866;2023-07-13T14:49:25;1.58;;;1.00;;
58071;SDS011;60383;46.626;18.866;2023-07-13T14:51:58;1.23;;;1.13;;
58071;SDS011;60383;46.626;18.866;2023-07-13T14:54:35;1.00;;;0.90;;
58071;SDS011;60383;46.626;18.866;2023-07-13T14:59:33;1.88;;;0.90;;
58071;SDS011;60383;46.626;18.866;2023-07-13T15:01:59;1.77;;;0.90;;
58071;SDS011;60383;46.626;18.866;2023-07-13T15:04:25;2.63;;;0.90;;
58071;SDS011;60383;46.626;18.866;2023-07-13T15:06:52;1.13;;;1.00;;
58071;SDS011;60383;46.626;18.866;2023-07-13T15:09:19;1.67;;;1.00;;
58071;SDS011;60383;46.626;18.866;2023-07-13T15:11:44;3.00;;;1.35;;
58071;SDS011;60383;46.626;18.866;2023-07-13T15:14:09;2.10;;;1.30;;
58071;SDS011;60383;46.626;18.866;2023-07-13T15:16:35;1.83;;;1.30;;
58071;SDS011;60383;46.626;18.866;2023-07-13T15:19:00;2.65;;;1.15;;
58071;SDS011;60383;46.626;18.866;2023-07-13T15:21:27;3.22;;;2.17;;
58071;SDS011;60383;46.626;18.866;2023-07-13T15:23:59;1.35;;;1.08;;
58071;SDS011;60383;46.626;18.866;2023-07-13T15:26:26;2.35;;;0.90;;
58071;SDS011;60383;46.626;18.866;2023-07-13T15:28:51;3.33;;;1.33;;
58071;SDS011;60383;46.626;18.866;2023-07-13T15:33:45;4.75;;;1.23;;
58071;SDS011;60383;46.626;18.866;2023-07-13T15:36:14;1.60;;;1.10;;
58071;SDS011;60383;46.626;18.866;2023-07-13T15:38:42;1.88;;;1.00;;
58071;SDS011;60383;46.626;18.866;2023-07-13T15:41:16;3.28;;;1.20;;
58071;SDS011;60383;46.626;18.866;2023-07-13T15:43:47;1.73;;;1.10;;